Time;durP1;ratioP1;P1;durP2;ratioP2;P2;SDS_P1;SDS_P2;PMS_P1;PMS_P2;Temp;Humidity;BMP_temperature;BMP_pressure;BME280_temperature;BME280_humidity;BME280_pressure;Samples;Min_cycle;Max_cycle;Signal;HPM_P1;HPM_P2
2022/06/04 00:00:20;;;;;;;;;;;12.20;99.90;;;;;;4992761;28;19918;-74
2022/06/04 00:02:47;;;;;;;;;;;12.30;99.90;;;;;;4992597;28;19916;-74
2022/06/04 00:05:16;;;;;;;;;;;12.30;99.90;;;;;;4995995;28;19916;-75
2022/06/04 00:07:43;;;;;;;;;;;12.50;99.90;;;;;;4995905;28;19941;-76
2022/06/04 00:15:44;;;;;;;;;;;12.50;99.90;;;;;;4996222;28;19917;-75
2022/06/04 00:18:11;;;;;;;;;;;12.50;99.90;;;;;;4995975;28;19961;-76
2022/06/04 00:20:38;;;;;;;;;;;12.40;99.90;;;;;;4996021;28;19914;-76
2022/06/04 00:23:06;;;;;;;;;;;12.50;99.90;;;;;;4995609;28;19910;-75
2022/06/04 00:25:33;;;;;;;;;;;12.50;99.90;;;;;;4995445;28;19917;-76
2022/06/04 00:28:01;;;;;;;;;;;12.50;99.90;;;;;;4995950;28;19910;-75
2022/06/04 00:30:27;;;;;;;;;;;12.60;99.90;;;;;;4995860;28;19946;-75
2022/06/04 00:32:54;;;;;;;;;;;12.60;99.90;;;;;;4995812;28;19950;-74
2022/06/04 00:35:21;;;;;;;;;;;12.70;99.90;;;;;;4995618;28;19910;-76
2022/06/04 00:37:49;;;;;;;;;;;12.70;99.90;;;;;;4995180;28;20007;-74
2022/06/04 00:40:23;;;;;;;;;;;12.70;99.90;;;;;;4995687;28;19928;-75
2022/06/04 00:42:49;;;;;;;;;;;12.80;99.90;;;;;;4995688;28;19945;-74
2022/06/04 00:45:19;;;;;;;;;;;12.80;99.90;;;;;;4995591;28;20307;-75
2022/06/04 00:47:46;;;;;;;;;;;12.90;99.90;;;;;;4995321;28;19909;-75
2022/06/04 00:50:14;;;;;;;;;;;12.90;99.90;;;;;;4995511;28;20424;-75
2022/06/04 00:52:42;;;;;;;;;;;12.90;99.90;;;;;;4994939;28;19929;-75
2022/06/04 00:55:09;;;;;;;;;;;13.00;99.90;;;;;;4995486;28;19910;-75
2022/06/04 00:57:45;;;;;;;;;;;13.00;99.90;;;;;;4995233;28;19941;-75
2022/06/04 01:00:41;;;;;;;;;;;13.20;99.90;;;;;;4995336;28;19918;-75
2022/06/04 01:03:11;;;;;;;;;;;13.40;99.90;;;;;;4994563;28;19917;-74
2022/06/04 01:05:56;;;;;;;;;;;13.70;99.90;;;;;;4995140;28;19909;-75
2022/06/04 01:08:22;;;;;;;;;;;14.00;99.90;;;;;;4995050;28;20262;-73
2022/06/04 01:10:55;;;;;;;;;;;14.40;99.90;;;;;;4995273;28;19914;-75
2022/06/04 01:13:54;;;;;;;;;;;14.60;99.90;;;;;;4995136;28;19917;-75
2022/06/04 01:16:30;;;;;;;;;;;14.50;99.90;;;;;;4993561;28;19909;-75
2022/06/04 01:19:09;;;;;;;;;;;14.60;99.90;;;;;;4994832;28;19914;-75
2022/06/04 01:21:54;;;;;;;;;;;14.80;99.90;;;;;;4994761;28;19917;-76
2022/06/04 01:24:23;;;;;;;;;;;14.60;99.90;;;;;;4994962;28;20416;-75
2022/06/04 01:27:06;;;;;;;;;;;14.30;99.90;;;;;;4994815;28;19920;-75
2022/06/04 01:29:38;;;;;;;;;;;14.30;99.90;;;;;;4994754;28;19910;-74
2022/06/04 01:32:07;;;;;;;;;;;14.20;99.90;;;;;;4994805;28;19909;-74
2022/06/04 01:34:44;;;;;;;;;;;14.10;99.90;;;;;;5022916;28;20397;-74
2022/06/04 01:37:15;;;;;;;;;;;14.10;99.90;;;;;;4994862;28;20004;-75
2022/06/04 01:42:34;;;;;;;;;;;14.20;99.90;;;;;;4994908;28;19964;-76
2022/06/04 01:45:02;;;;;;;;;;;14.10;99.90;;;;;;4994794;28;19910;-75
2022/06/04 01:47:29;;;;;;;;;;;14.10;99.90;;;;;;4994641;28;19909;-73
2022/06/04 01:49:57;;;;;;;;;;;14.10;99.90;;;;;;4994706;28;19937;-73
2022/06/04 01:52:26;;;;;;;;;;;14.00;99.90;;;;;;5001779;28;20361;-75
2022/06/04 01:55:04;;;;;;;;;;;14.00;99.90;;;;;;5013823;28;19913;-76
2022/06/04 01:57:37;;;;;;;;;;;14.10;99.90;;;;;;5013624;28;20325;-73
2022/06/04 02:00:07;;;;;;;;;;;14.10;99.90;;;;;;5013732;28;20406;-75
2022/06/04 02:02:39;;;;;;;;;;;14.00;99.90;;;;;;5013907;28;19909;-75
2022/06/04 02:05:08;;;;;;;;;;;14.10;99.90;;;;;;5013644;28;19987;-75
2022/06/04 02:07:38;;;;;;;;;;;14.00;99.90;;;;;;5028814;28;20003;-73
2022/06/04 02:10:04;;;;;;;;;;;14.10;99.90;;;;;;5013754;28;19950;-74
2022/06/04 02:12:33;;;;;;;;;;;14.10;99.90;;;;;;5013616;28;19924;-74
2022/06/04 02:15:01;;;;;;;;;;;14.10;99.90;;;;;;5013485;28;19913;-74
2022/06/04 02:17:28;;;;;;;;;;;14.00;99.90;;;;;;5013375;28;20380;-74
2022/06/04 02:19:55;;;;;;;;;;;14.10;99.90;;;;;;5013365;28;20008;-74
2022/06/04 02:22:22;;;;;;;;;;;14.30;99.90;;;;;;5027735;28;20024;-74
2022/06/04 02:24:48;;;;;;;;;;;14.30;99.90;;;;;;5053782;28;19995;-74
2022/06/04 02:27:15;;;;;;;;;;;14.20;99.90;;;;;;5052998;28;20314;-74
2022/06/04 02:29:43;;;;;;;;;;;14.30;99.90;;;;;;5053358;28;19909;-74
2022/06/04 02:32:09;;;;;;;;;;;14.30;99.90;;;;;;5053604;28;19909;-73
2022/06/04 02:34:42;;;;;;;;;;;14.30;99.90;;;;;;5053812;28;20003;-74
2022/06/04 02:37:26;;;;;;;;;;;14.40;99.90;;;;;;5053910;28;19909;-74
2022/06/04 02:39:57;;;;;;;;;;;14.40;99.90;;;;;;5053980;28;19970;-73
2022/06/04 02:42:23;;;;;;;;;;;14.40;99.90;;;;;;5054093;28;20042;-73
2022/06/04 02:45:08;;;;;;;;;;;14.40;99.90;;;;;;5053331;28;19916;-73
2022/06/04 02:47:55;;;;;;;;;;;14.40;99.90;;;;;;5053299;28;20338;-73
2022/06/04 02:50:25;;;;;;;;;;;14.40;99.90;;;;;;5053003;28;19948;-74
2022/06/04 02:52:53;;;;;;;;;;;14.50;99.90;;;;;;5052908;28;19977;-74
2022/06/04 02:55:23;;;;;;;;;;;14.60;99.90;;;;;;5053005;28;19912;-73
2022/06/04 02:57:52;;;;;;;;;;;14.50;99.90;;;;;;5053124;28;19951;-73
2022/06/04 03:00:22;;;;;;;;;;;14.60;99.90;;;;;;5053112;28;19921;-73
2022/06/04 03:02:49;;;;;;;;;;;14.60;99.90;;;;;;5053333;28;19916;-73
2022/06/04 03:05:20;;;;;;;;;;;14.60;99.90;;;;;;5053187;28;19909;-73
2022/06/04 03:07:49;;;;;;;;;;;14.70;99.90;;;;;;5052983;28;19994;-72
2022/06/04 03:10:21;;;;;;;;;;;14.70;99.90;;;;;;5053122;28;19927;-73
2022/06/04 03:12:47;;;;;;;;;;;14.70;99.90;;;;;;5053185;28;20344;-74
2022/06/04 03:15:14;;;;;;;;;;;14.80;99.90;;;;;;5053232;28;20268;-74
2022/06/04 03:17:42;;;;;;;;;;;14.90;99.90;;;;;;5068319;28;19962;-74
2022/06/04 03:20:10;;;;;;;;;;;14.80;99.90;;;;;;5053165;28;20003;-74
2022/06/04 03:22:37;;;;;;;;;;;14.90;99.90;;;;;;5052681;28;19954;-74
2022/06/04 03:25:04;;;;;;;;;;;14.80;99.90;;;;;;5053177;28;19916;-73
2022/06/04 03:27:31;;;;;;;;;;;14.80;99.90;;;;;;5052756;28;19939;-74
2022/06/04 03:29:58;;;;;;;;;;;14.80;99.90;;;;;;5052834;28;20345;-73
2022/06/04 03:32:24;;;;;;;;;;;14.90;99.90;;;;;;5052750;28;20297;-73
2022/06/04 03:34:51;;;;;;;;;;;14.90;99.90;;;;;;5020446;28;20518;-74
2022/06/04 03:37:18;;;;;;;;;;;14.90;99.90;;;;;;5033426;28;19909;-74
2022/06/04 03:39:45;;;;;;;;;;;14.90;99.90;;;;;;5036604;28;19917;-74
2022/06/04 03:42:11;;;;;;;;;;;14.90;99.90;;;;;;5036632;28;19913;-74
2022/06/04 03:44:40;;;;;;;;;;;15.00;99.90;;;;;;5019030;28;19952;-74
2022/06/04 03:47:06;;;;;;;;;;;15.00;99.90;;;;;;5036750;28;20307;-74
2022/06/04 03:49:33;;;;;;;;;;;14.90;99.90;;;;;;5036383;28;19909;-74
2022/06/04 03:52:01;;;;;;;;;;;14.90;99.90;;;;;;5036312;28;19914;-75
2022/06/04 03:59:57;;;;;;;;;;;15.10;99.90;;;;;;5036470;28;19963;-75
2022/06/04 04:02:24;;;;;;;;;;;15.10;99.90;;;;;;5036388;28;20007;-75
2022/06/04 04:04:50;;;;;;;;;;;15.10;99.90;;;;;;5051507;28;19967;-75
2022/06/04 04:07:17;;;;;;;;;;;15.10;99.90;;;;;;5036120;28;19959;-75
2022/06/04 04:09:44;;;;;;;;;;;15.20;99.90;;;;;;5036067;28;20375;-74
2022/06/04 04:12:10;;;;;;;;;;;15.00;99.90;;;;;;5036434;28;19921;-74
2022/06/04 04:14:37;;;;;;;;;;;15.10;99.90;;;;;;5036256;28;19909;-74
2022/06/04 04:17:04;;;;;;;;;;;15.10;99.90;;;;;;5036229;28;20347;-74
2022/06/04 04:19:31;;;;;;;;;;;15.10;99.90;;;;;;5036051;28;19924;-75
2022/06/04 04:21:58;;;;;;;;;;;15.20;99.90;;;;;;5036136;28;19909;-74
2022/06/04 04:24:24;;;;;;;;;;;15.20;99.90;;;;;;5036170;28;19917;-74
2022/06/04 04:26:51;;;;;;;;;;;15.30;99.90;;;;;;5035994;28;19909;-74
2022/06/04 04:29:18;;;;;;;;;;;15.20;99.90;;;;;;5035955;28;20004;-73
2022/06/04 04:31:44;;;;;;;;;;;15.20;99.90;;;;;;5035771;28;20427;-74
2022/06/04 04:34:11;;;;;;;;;;;15.20;99.90;;;;;;5035700;28;19916;-74
2022/06/04 04:36:38;;;;;;;;;;;15.20;99.90;;;;;;5029606;28;19913;-74
2022/06/04 04:39:04;;;;;;;;;;;15.20;99.90;;;;;;5023835;28;19918;-73
2022/06/04 04:41:31;;;;;;;;;;;15.20;99.90;;;;;;5015103;28;19909;-73
2022/06/04 04:43:58;;;;;;;;;;;15.20;99.90;;;;;;5015265;28;19984;-73
2022/06/04 04:46:25;;;;;;;;;;;15.10;99.90;;;;;;5015252;28;20051;-73
2022/06/04 04:48:51;;;;;;;;;;;15.10;99.90;;;;;;5014496;28;19948;-74
2022/06/04 04:51:20;;;;;;;;;;;15.10;99.90;;;;;;5014938;28;20276;-73
2022/06/04 04:53:47;;;;;;;;;;;15.10;99.90;;;;;;5014656;28;19936;-74
2022/06/04 04:56:14;;;;;;;;;;;15.10;99.90;;;;;;5015059;28;19937;-74
2022/06/04 04:58:41;;;;;;;;;;;15.20;99.90;;;;;;5014796;28;19922;-73
2022/06/04 05:01:22;;;;;;;;;;;15.20;99.90;;;;;;5014709;28;19956;-73
2022/06/04 05:03:49;;;;;;;;;;;15.30;99.90;;;;;;5014554;28;20312;-73
2022/06/04 05:06:16;;;;;;;;;;;15.30;99.90;;;;;;5014605;28;20008;-73
2022/06/04 05:08:43;;;;;;;;;;;15.30;99.90;;;;;;5014669;28;19913;-73
2022/06/04 05:11:16;;;;;;;;;;;15.30;99.90;;;;;;5014650;28;20426;-73
2022/06/04 05:13:42;;;;;;;;;;;15.30;99.90;;;;;;5014424;28;19910;-74
2022/06/04 05:16:09;;;;;;;;;;;15.30;99.90;;;;;;5014586;28;19909;-74
2022/06/04 05:18:36;;;;;;;;;;;15.30;99.90;;;;;;5014625;28;19976;-73
2022/06/04 05:21:11;;;;;;;;;;;15.40;99.90;;;;;;5014418;28;19919;-73
2022/06/04 05:23:38;;;;;;;;;;;15.40;99.90;;;;;;5014303;28;20012;-74
2022/06/04 05:26:05;;;;;;;;;;;15.40;99.90;;;;;;5014515;28;19917;-73
2022/06/04 05:28:32;;;;;;;;;;;15.30;99.90;;;;;;5014288;28;19916;-73
2022/06/04 05:30:58;;;;;;;;;;;15.30;99.90;;;;;;5014217;28;20692;-73
2022/06/04 05:33:26;;;;;;;;;;;15.20;99.90;;;;;;5014134;28;20284;-73
2022/06/04 05:35:52;;;;;;;;;;;15.10;99.90;;;;;;5013804;28;19914;-72
2022/06/04 05:38:19;;;;;;;;;;;15.30;99.90;;;;;;5014124;28;19917;-73
2022/06/04 05:40:46;;;;;;;;;;;15.30;99.90;;;;;;5014091;28;20275;-73
2022/06/04 05:43:13;;;;;;;;;;;15.20;99.90;;;;;;5014013;28;19910;-74
2022/06/04 05:45:40;;;;;;;;;;;15.20;99.90;;;;;;5013858;28;20261;-74
2022/06/04 05:48:08;;;;;;;;;;;15.10;99.90;;;;;;5013949;28;19916;-74
2022/06/04 05:50:35;;;;;;;;;;;15.10;99.90;;;;;;5013733;28;19910;-75
2022/06/04 05:53:02;;;;;;;;;;;15.00;99.90;;;;;;5013624;28;20295;-74
2022/06/04 05:55:29;;;;;;;;;;;14.90;99.90;;;;;;5013715;28;19921;-75
2022/06/04 05:57:57;;;;;;;;;;;14.80;99.90;;;;;;5013715;28;19910;-76
2022/06/04 06:00:24;;;;;;;;;;;14.80;99.90;;;;;;5013011;28;19918;-75
2022/06/04 06:02:51;;;;;;;;;;;14.80;99.90;;;;;;5013084;28;19914;-74
2022/06/04 06:05:17;;;;;;;;;;;14.80;99.90;;;;;;5013484;28;20267;-75
2022/06/04 06:07:44;;;;;;;;;;;14.70;99.90;;;;;;5013225;28;19985;-74
2022/06/04 06:10:11;;;;;;;;;;;14.60;99.90;;;;;;5013452;28;20315;-75
2022/06/04 06:12:38;;;;;;;;;;;14.50;99.90;;;;;;5013519;28;20004;-76
2022/06/04 06:15:05;;;;;;;;;;;14.40;99.90;;;;;;5013539;28;19956;-75
2022/06/04 06:17:31;;;;;;;;;;;14.40;99.90;;;;;;5013392;28;19909;-74
2022/06/04 06:19:58;;;;;;;;;;;14.30;99.90;;;;;;5013213;28;19928;-76
2022/06/04 06:22:25;;;;;;;;;;;14.20;99.90;;;;;;5013218;28;19949;-76
2022/06/04 06:24:51;;;;;;;;;;;14.10;99.90;;;;;;5013312;28;20364;-76
2022/06/04 06:27:18;;;;;;;;;;;14.10;99.90;;;;;;5013278;28;19944;-76
2022/06/04 06:29:45;;;;;;;;;;;14.20;99.90;;;;;;5013115;28;19979;-76
2022/06/04 06:32:12;;;;;;;;;;;14.20;99.90;;;;;;5013084;28;19918;-74
2022/06/04 06:34:38;;;;;;;;;;;14.20;99.90;;;;;;5012875;28;19918;-73
2022/06/04 06:37:05;;;;;;;;;;;14.10;99.90;;;;;;5012948;28;20265;-76
2022/06/04 06:39:32;;;;;;;;;;;14.10;99.90;;;;;;5012474;28;19917;-75
2022/06/04 06:41:58;;;;;;;;;;;14.10;99.90;;;;;;5012933;28;19910;-75
2022/06/04 06:44:25;;;;;;;;;;;14.10;99.90;;;;;;5012811;28;19910;-73
2022/06/04 06:46:52;;;;;;;;;;;14.10;99.90;;;;;;5031561;28;19909;-75
2022/06/04 06:49:21;;;;;;;;;;;14.00;99.90;;;;;;5053248;28;19982;-74
2022/06/04 06:51:49;;;;;;;;;;;14.00;99.90;;;;;;5052805;28;19955;-74
2022/06/04 06:54:17;;;;;;;;;;;13.90;99.90;;;;;;5053112;28;19909;-74
2022/06/04 06:56:44;;;;;;;;;;;13.90;99.90;;;;;;5052972;28;19909;-74
2022/06/04 06:59:11;;;;;;;;;;;13.90;99.90;;;;;;5053093;28;19928;-74
2022/06/04 07:01:38;;;;;;;;;;;13.80;99.90;;;;;;5053122;28;19916;-74
2022/06/04 07:04:05;;;;;;;;;;;13.90;99.90;;;;;;5050541;28;19909;-74
2022/06/04 07:06:40;;;;;;;;;;;13.80;99.90;;;;;;5033157;28;20386;-74
2022/06/04 07:09:17;;;;;;;;;;;13.80;99.90;;;;;;5032962;28;20395;-74
2022/06/04 07:11:47;;;;;;;;;;;13.80;99.90;;;;;;5032716;28;19962;-75
2022/06/04 07:14:14;;;;;;;;;;;13.80;99.90;;;;;;5033059;28;19992;-72
2022/06/04 07:16:41;;;;;;;;;;;13.70;99.90;;;;;;5033104;28;20417;-73
2022/06/04 07:19:08;;;;;;;;;;;13.70;99.90;;;;;;5033080;28;19972;-73
2022/06/04 07:21:35;;;;;;;;;;;13.70;99.90;;;;;;5032844;28;19959;-74
2022/06/04 07:24:02;;;;;;;;;;;13.70;99.90;;;;;;5033430;28;19909;-74
2022/06/04 07:26:29;;;;;;;;;;;13.60;99.90;;;;;;5033020;28;19909;-74
2022/06/04 07:28:57;;;;;;;;;;;13.50;99.90;;;;;;5033621;28;19909;-74
2022/06/04 07:31:24;;;;;;;;;;;13.50;99.90;;;;;;5033162;28;19915;-73
2022/06/04 07:33:55;;;;;;;;;;;13.40;99.90;;;;;;5033104;28;20008;-73
2022/06/04 07:36:26;;;;;;;;;;;13.40;99.90;;;;;;5033446;28;19916;-74
2022/06/04 07:38:53;;;;;;;;;;;13.30;99.90;;;;;;5033343;28;19936;-73
2022/06/04 07:41:20;;;;;;;;;;;13.30;99.90;;;;;;5033297;28;19913;-73
2022/06/04 07:43:48;;;;;;;;;;;13.20;99.90;;;;;;5033135;28;19916;-73
2022/06/04 07:46:15;;;;;;;;;;;13.20;99.90;;;;;;5033407;28;20356;-74
2022/06/04 07:48:42;;;;;;;;;;;13.20;99.90;;;;;;5032428;28;19909;-75
2022/06/04 07:51:08;;;;;;;;;;;13.20;99.90;;;;;;5032040;28;19909;-74
2022/06/04 07:53:36;;;;;;;;;;;13.10;99.90;;;;;;5032723;28;19925;-74
2022/06/04 07:56:10;;;;;;;;;;;13.10;99.90;;;;;;5032668;28;20355;-74
2022/06/04 07:58:37;;;;;;;;;;;13.10;99.90;;;;;;5032583;28;19913;-74
2022/06/04 08:01:05;;;;;;;;;;;13.10;99.90;;;;;;5032870;28;19992;-74
2022/06/04 08:03:33;;;;;;;;;;;13.10;99.90;;;;;;5031253;28;19909;-74
2022/06/04 08:06:00;;;;;;;;;;;13.10;99.90;;;;;;5020662;28;19909;-75
2022/06/04 08:08:28;;;;;;;;;;;13.10;99.90;;;;;;5010941;28;19914;-75
2022/06/04 08:10:54;;;;;;;;;;;13.00;99.90;;;;;;5010903;28;19909;-75
2022/06/04 08:13:30;;;;;;;;;;;13.00;99.90;;;;;;5025878;28;20364;-74
2022/06/04 08:16:00;;;;;;;;;;;13.00;99.90;;;;;;5011007;28;19914;-75
2022/06/04 08:18:30;;;;;;;;;;;13.00;99.90;;;;;;5010227;28;19917;-74
2022/06/04 08:20:57;;;;;;;;;;;13.00;99.90;;;;;;5010325;28;19913;-74
2022/06/04 08:23:24;;;;;;;;;;;12.90;99.90;;;;;;5010987;28;19967;-74
2022/06/04 08:25:52;;;;;;;;;;;12.90;99.90;;;;;;5013062;28;19924;-75
2022/06/04 08:28:19;;;;;;;;;;;12.80;99.90;;;;;;5014455;28;19916;-73
2022/06/04 08:30:45;;;;;;;;;;;12.70;99.90;;;;;;5014293;28;19910;-74
2022/06/04 08:33:12;;;;;;;;;;;12.60;99.90;;;;;;5014121;28;20356;-74
2022/06/04 08:35:39;;;;;;;;;;;12.60;99.90;;;;;;5013996;28;19909;-74
2022/06/04 08:38:06;;;;;;;;;;;12.60;99.90;;;;;;5014581;28;19910;-73
2022/06/04 08:40:40;;;;;;;;;;;12.60;99.90;;;;;;5014127;28;19921;-74
2022/06/04 08:43:26;;;;;;;;;;;12.60;99.90;;;;;;5014227;28;19968;-73
2022/06/04 08:45:53;;;;;;;;;;;12.60;99.90;;;;;;5012465;28;20376;-73
2022/06/04 08:48:27;;;;;;;;;;;12.80;99.90;;;;;;5014189;28;19920;-74
2022/06/04 08:50:54;;;;;;;;;;;12.90;99.90;;;;;;5014059;28;19917;-73
2022/06/04 08:53:24;;;;;;;;;;;12.90;99.90;;;;;;5002099;28;19971;-73
2022/06/04 08:58:40;;;;;;;;;;;12.80;99.90;;;;;;4994479;28;20440;-74
2022/06/04 09:01:13;;;;;;;;;;;12.80;99.90;;;;;;4994376;28;20285;-74
2022/06/04 09:03:42;;;;;;;;;;;12.80;99.90;;;;;;4993229;28;19910;-73
2022/06/04 09:06:16;;;;;;;;;;;12.80;99.90;;;;;;4994250;28;19976;-73
2022/06/04 09:08:42;;;;;;;;;;;12.80;99.90;;;;;;4993890;28;20005;-73
2022/06/04 09:11:16;;;;;;;;;;;12.90;99.90;;;;;;4994076;28;19940;-73
2022/06/04 09:13:50;;;;;;;;;;;13.00;99.90;;;;;;4993864;28;19914;-74
2022/06/04 09:16:29;;;;;;;;;;;13.00;99.90;;;;;;4993603;28;19920;-74
2022/06/04 09:19:00;;;;;;;;;;;13.00;99.90;;;;;;4993760;28;19918;-74
2022/06/04 09:21:32;;;;;;;;;;;13.00;99.90;;;;;;4994026;28;19914;-74
2022/06/04 09:23:59;;;;;;;;;;;13.00;99.90;;;;;;4993546;28;20401;-74
2022/06/04 09:26:42;;;;;;;;;;;12.90;99.90;;;;;;4994017;28;19914;-75
2022/06/04 09:29:12;;;;;;;;;;;13.00;99.90;;;;;;4993753;28;19949;-75
2022/06/04 09:31:42;;;;;;;;;;;12.90;99.90;;;;;;4993076;28;19920;-74
2022/06/04 09:34:19;;;;;;;;;;;12.90;99.90;;;;;;4993476;28;19910;-75
2022/06/04 09:36:46;;;;;;;;;;;12.80;99.90;;;;;;4992977;28;19909;-75
2022/06/04 09:39:30;;;;;;;;;;;12.80;99.90;;;;;;5008379;28;19984;-75
2022/06/04 09:42:03;;;;;;;;;;;12.80;99.90;;;;;;4993255;28;19913;-75
2022/06/04 09:44:31;;;;;;;;;;;12.70;99.90;;;;;;4993044;28;20439;-75
2022/06/04 09:47:07;;;;;;;;;;;12.70;99.90;;;;;;4992871;28;19914;-75
2022/06/04 09:49:44;;;;;;;;;;;12.70;99.90;;;;;;4992690;28;19964;-75
2022/06/04 09:52:33;;;;;;;;;;;12.60;99.90;;;;;;4992846;28;19929;-75
2022/06/04 09:55:07;;;;;;;;;;;12.50;99.90;;;;;;4992987;28;20324;-75
2022/06/04 09:57:38;;;;;;;;;;;12.50;99.90;;;;;;4993162;28;19909;-74
2022/06/04 10:00:17;;;;;;;;;;;12.40;99.90;;;;;;4999233;28;20016;-75
2022/06/04 10:02:54;;;;;;;;;;;12.30;99.90;;;;;;5011677;28;19917;-74
2022/06/04 10:05:21;;;;;;;;;;;12.20;99.90;;;;;;5011551;28;20183;-74
2022/06/04 10:07:48;;;;;;;;;;;12.10;99.90;;;;;;5011447;28;19964;-75
2022/06/04 10:10:17;;;;;;;;;;;12.10;99.90;;;;;;5011619;28;19909;-75
2022/06/04 10:15:33;;;;;;;;;;;12.00;99.90;;;;;;5011720;28;19939;-75
2022/06/04 10:18:02;;;;;;;;;;;11.90;99.90;;;;;;5011344;28;19917;-76
2022/06/04 10:20:29;;;;;;;;;;;11.90;99.90;;;;;;5011289;28;19921;-76
2022/06/04 10:22:56;;;;;;;;;;;11.90;99.90;;;;;;5011372;28;19913;-76
2022/06/04 10:25:26;;;;;;;;;;;11.90;99.90;;;;;;5010922;28;19914;-76
2022/06/04 10:28:10;;;;;;;;;;;12.00;99.90;;;;;;5010989;28;19914;-75
2022/06/04 10:30:37;;;;;;;;;;;12.00;99.90;;;;;;5011193;28;19964;-76
2022/06/04 10:33:12;;;;;;;;;;;12.10;99.90;;;;;;5011199;28;19951;-76
2022/06/04 10:35:41;;;;;;;;;;;12.20;99.90;;;;;;5010854;28;19909;-75
2022/06/04 10:38:26;;;;;;;;;;;12.10;99.90;;;;;;5010576;28;19917;-76
2022/06/04 10:41:08;;;;;;;;;;;12.00;99.90;;;;;;5011420;28;19921;-76
2022/06/04 10:44:05;;;;;;;;;;;11.90;99.90;;;;;;5010783;28;19914;-75
2022/06/04 10:46:43;;;;;;;;;;;12.00;99.90;;;;;;5010781;28;20400;-74
2022/06/04 10:49:22;;;;;;;;;;;12.00;99.90;;;;;;5010734;28;20361;-75
2022/06/04 10:51:49;;;;;;;;;;;12.00;99.90;;;;;;5010269;28;19921;-76
2022/06/04 10:54:22;;;;;;;;;;;12.00;99.90;;;;;;5010913;28;19916;-76
2022/06/04 10:56:51;;;;;;;;;;;12.00;99.90;;;;;;5010896;28;19913;-75
2022/06/04 10:59:22;;;;;;;;;;;12.00;99.90;;;;;;5010194;28;20020;-75
2022/06/04 11:01:53;;;;;;;;;;;11.90;99.90;;;;;;5010723;28;19909;-75
2022/06/04 11:04:23;;;;;;;;;;;11.80;99.90;;;;;;4992617;28;19921;-74
2022/06/04 11:06:54;;;;;;;;;;;11.80;99.90;;;;;;5010702;28;19910;-74
2022/06/04 11:09:24;;;;;;;;;;;11.80;99.90;;;;;;5010635;28;19920;-74
2022/06/04 11:11:53;;;;;;;;;;;11.60;99.90;;;;;;5010231;28;19969;-74
2022/06/04 11:14:26;;;;;;;;;;;11.60;99.90;;;;;;5010553;28;19909;-75
2022/06/04 11:16:58;;;;;;;;;;;11.60;99.90;;;;;;5010627;28;20514;-74
2022/06/04 11:19:54;;;;;;;;;;;11.70;99.90;;;;;;5010164;28;19967;-75
2022/06/04 11:22:32;;;;;;;;;;;11.70;99.90;;;;;;5009961;28;19996;-75
2022/06/04 11:24:59;;;;;;;;;;;11.70;99.90;;;;;;5010892;28;19948;-75
2022/06/04 11:27:46;;;;;;;;;;;11.60;99.90;;;;;;5010460;28;19931;-75
2022/06/04 11:30:15;;;;;;;;;;;11.50;99.90;;;;;;5010310;28;19909;-75
2022/06/04 11:32:51;;;;;;;;;;;11.50;99.90;;;;;;5010494;28;20000;-75
2022/06/04 11:35:35;;;;;;;;;;;11.50;99.90;;;;;;5010746;28;19910;-75
2022/06/04 11:38:18;;;;;;;;;;;11.60;99.90;;;;;;5010780;28;19941;-75
2022/06/04 11:40:45;;;;;;;;;;;11.60;99.90;;;;;;5002437;28;19925;-75
2022/06/04 11:43:18;;;;;;;;;;;11.60;99.90;;;;;;5010486;28;19910;-75
2022/06/04 11:45:58;;;;;;;;;;;11.60;99.90;;;;;;5010144;28;19963;-75
2022/06/04 11:48:36;;;;;;;;;;;11.70;99.90;;;;;;5010977;28;19920;-75
2022/06/04 11:51:09;;;;;;;;;;;11.70;99.90;;;;;;5011320;28;20471;-74
2022/06/04 11:53:38;;;;;;;;;;;11.70;99.90;;;;;;5010962;28;20023;-74
2022/06/04 11:56:11;;;;;;;;;;;11.70;99.90;;;;;;5013214;28;20383;-75
2022/06/04 11:58:38;;;;;;;;;;;11.70;99.90;;;;;;5011865;28;19913;-74
2022/06/04 12:01:14;;;;;;;;;;;11.80;99.90;;;;;;5030309;28;19913;-73
2022/06/04 12:03:54;;;;;;;;;;;11.80;99.90;;;;;;5015199;28;19924;-74
2022/06/04 12:06:30;;;;;;;;;;;11.70;99.90;;;;;;5015266;28;20011;-74
2022/06/04 12:09:00;;;;;;;;;;;11.70;99.90;;;;;;5015078;28;19977;-74
2022/06/04 12:11:45;;;;;;;;;;;11.70;99.90;;;;;;5014607;28;19996;-74
2022/06/04 12:14:21;;;;;;;;;;;11.60;99.90;;;;;;5014812;28;20002;-74
2022/06/04 12:17:08;;;;;;;;;;;11.50;99.90;;;;;;4997766;28;20250;-75
2022/06/04 12:25:10;;;;;;;;;;;11.40;99.90;;;;;;5014683;28;19916;-75
2022/06/04 12:27:53;;;;;;;;;;;11.30;99.90;;;;;;5013630;28;19913;-75
2022/06/04 12:30:30;;;;;;;;;;;11.30;99.90;;;;;;5013661;28;20432;-75
2022/06/04 12:32:57;;;;;;;;;;;11.20;99.90;;;;;;5013394;28;19910;-75
2022/06/04 12:35:31;;;;;;;;;;;11.20;99.90;;;;;;5013663;28;19909;-75
2022/06/04 12:37:59;;;;;;;;;;;11.20;99.90;;;;;;5013336;28;19953;-74
2022/06/04 12:40:34;;;;;;;;;;;11.20;99.90;;;;;;5013370;28;19921;-73
2022/06/04 12:43:06;;;;;;;;;;;11.20;99.90;;;;;;5015319;28;19913;-74
2022/06/04 12:45:34;;;;;;;;;;;11.20;99.90;;;;;;5016191;28;19909;-73
2022/06/04 12:48:01;;;;;;;;;;;11.20;99.90;;;;;;5016004;28;20376;-74
2022/06/04 12:50:36;;;;;;;;;;;11.20;99.90;;;;;;5016087;28;19910;-73
2022/06/04 12:53:13;;;;;;;;;;;11.30;99.90;;;;;;5015934;28;19921;-73
2022/06/04 12:56:00;;;;;;;;;;;11.30;99.90;;;;;;5015629;28;20370;-72
2022/06/04 12:58:49;;;;;;;;;;;11.30;99.90;;;;;;5015888;28;19909;-73
2022/06/04 13:01:19;;;;;;;;;;;11.30;99.90;;;;;;5015813;28;19913;-73
2022/06/04 13:03:48;;;;;;;;;;;11.30;99.90;;;;;;5015582;28;19909;-73
2022/06/04 13:06:32;;;;;;;;;;;11.40;99.90;;;;;;5015726;28;20372;-74
2022/06/04 13:09:17;;;;;;;;;;;11.40;99.90;;;;;;5015640;28;19957;-74
2022/06/04 13:12:19;;;;;;;;;;;11.40;99.90;;;;;;5014768;28;20322;-74
2022/06/04 13:14:54;;;;;;;;;;;11.40;99.90;;;;;;4955150;29;20296;-74
2022/06/04 13:17:28;;;;;;;;;;;11.40;99.90;;;;;;5006832;28;20406;-74
2022/06/04 13:20:08;;;;;;;;;;;11.30;99.90;;;;;;5014104;28;20265;-74
2022/06/04 13:22:46;;;;;;;;;;;11.30;99.90;;;;;;5015365;28;19909;-73
2022/06/04 13:25:15;;;;;;;;;;;11.40;99.90;;;;;;5015415;28;19910;-74
2022/06/04 13:27:48;;;;;;;;;;;11.40;99.90;;;;;;5015150;28;20383;-74
2022/06/04 13:30:16;;;;;;;;;;;11.40;99.90;;;;;;5015367;28;20280;-74
2022/06/04 13:32:43;;;;;;;;;;;11.50;99.90;;;;;;5015236;28;19910;-74
2022/06/04 13:35:15;;;;;;;;;;;11.50;99.90;;;;;;5015253;28;20360;-74
2022/06/04 13:37:43;;;;;;;;;;;11.50;99.90;;;;;;5014984;28;19913;-74
2022/06/04 13:40:23;;;;;;;;;;;11.40;99.90;;;;;;5014989;28;20368;-74
2022/06/04 13:42:50;;;;;;;;;;;11.40;99.90;;;;;;5015088;28;19945;-74
2022/06/04 13:45:33;;;;;;;;;;;11.30;99.90;;;;;;5014972;28;20253;-74
2022/06/04 13:48:02;;;;;;;;;;;11.30;99.90;;;;;;5014811;28;19909;-74
2022/06/04 13:50:31;;;;;;;;;;;11.30;99.90;;;;;;5014844;28;19909;-74
2022/06/04 13:53:00;;;;;;;;;;;11.30;99.90;;;;;;5014831;28;19968;-73
2022/06/04 13:55:29;;;;;;;;;;;11.40;99.90;;;;;;5014733;28;20368;-74
2022/06/04 13:57:59;;;;;;;;;;;11.30;99.90;;;;;;5014727;28;19910;-74
2022/06/04 14:00:28;;;;;;;;;;;11.50;99.90;;;;;;5014649;28;19921;-74
2022/06/04 14:02:57;;;;;;;;;;;11.60;99.90;;;;;;5014651;28;19916;-74
2022/06/04 14:05:49;;;;;;;;;;;11.50;99.90;;;;;;5014626;28;19916;-75
2022/06/04 14:08:17;;;;;;;;;;;11.50;99.90;;;;;;5014503;28;20000;-76
2022/06/04 14:11:04;;;;;;;;;;;11.40;99.90;;;;;;5014430;28;19949;-75
2022/06/04 14:13:46;;;;;;;;;;;11.40;99.90;;;;;;5003668;28;19914;-75
2022/06/04 14:16:28;;;;;;;;;;;11.40;99.90;;;;;;5014530;28;20026;-75
2022/06/04 14:19:01;;;;;;;;;;;11.40;99.90;;;;;;5014215;28;20008;-75
2022/06/04 14:21:38;;;;;;;;;;;11.40;99.90;;;;;;5012681;28;19913;-76
2022/06/04 14:24:04;;;;;;;;;;;11.30;99.90;;;;;;5014121;28;19909;-76
2022/06/04 14:26:49;;;;;;;;;;;11.30;99.90;;;;;;5014300;28;19960;-76
2022/06/04 14:29:28;;;;;;;;;;;11.30;99.90;;;;;;5014042;28;19916;-76
2022/06/04 14:32:04;;;;;;;;;;;11.30;99.90;;;;;;5014066;28;19909;-76
2022/06/04 14:34:37;;;;;;;;;;;11.30;99.90;;;;;;5014093;28;19913;-75
2022/06/04 14:37:05;;;;;;;;;;;11.20;99.90;;;;;;5014135;28;19910;-76
2022/06/04 14:39:31;;;;;;;;;;;11.20;99.90;;;;;;5013590;28;19925;-75
2022/06/04 14:42:17;;;;;;;;;;;11.20;99.90;;;;;;5013987;28;20361;-75
2022/06/04 14:44:52;;;;;;;;;;;11.10;99.90;;;;;;5014074;28;19917;-75
2022/06/04 14:47:18;;;;;;;;;;;11.10;99.90;;;;;;5013907;28;19941;-75
2022/06/04 14:50:08;;;;;;;;;;;11.00;99.90;;;;;;5013782;28;19916;-75
2022/06/04 14:52:35;;;;;;;;;;;11.00;99.90;;;;;;5013923;28;20015;-75
2022/06/04 14:55:22;;;;;;;;;;;10.90;99.90;;;;;;5013811;28;19914;-76
2022/06/04 14:57:54;;;;;;;;;;;10.90;99.90;;;;;;5013598;28;20383;-76
2022/06/04 15:00:27;;;;;;;;;;;10.90;99.90;;;;;;5013761;28;19922;-76
2022/06/04 15:03:06;;;;;;;;;;;10.90;99.90;;;;;;5013718;28;19913;-76